Time;durP1;ratioP1;P1;durP2;ratioP2;P2;SDS_P1;SDS_P2;PMS_P1;PMS_P2;Temp;Humidity;BMP_temperature;BMP_pressure;BME280_temperature;BME280_humidity;BME280_pressure;Samples;Min_cycle;Max_cycle;Signal;HPM_P1;HPM_P2
2021/08/08 04:02:22;;;;;;;;;;;15.50;99.90;;;;;;5;36056347;39061196;-84
2021/08/08 04:05:35;;;;;;;;;;;15.60;99.90;;;;;;5;36014718;39023199;-83
2021/08/08 04:08:48;;;;;;;;;;;15.60;99.90;;;;;;5;36016547;39018115;-84
2021/08/08 04:12:04;;;;;;;;;;;15.50;99.90;;;;;;5;36015181;39016385;-83
2021/08/08 04:15:13;;;;;;;;;;;15.60;99.90;;;;;;5;36014615;39015559;-84
2021/08/08 04:18:26;;;;;;;;;;;15.60;99.90;;;;;;5;36014224;39015981;-83
2021/08/08 04:21:39;;;;;;;;;;;15.60;99.90;;;;;;5;36014071;39015237;-83
2021/08/08 04:24:53;;;;;;;;;;;15.60;99.90;;;;;;5;36013895;39765510;-84
2021/08/08 04:28:02;;;;;;;;;;;15.60;99.90;;;;;;5;36014433;39015399;-84
2021/08/08 04:31:15;;;;;;;;;;;15.60;99.90;;;;;;5;36013205;39015164;-83
2021/08/08 04:34:30;;;;;;;;;;;15.70;99.90;;;;;;5;36013817;39016237;-83
2021/08/08 04:37:43;;;;;;;;;;;15.70;99.90;;;;;;5;36015402;39015559;-84
2021/08/08 04:40:52;;;;;;;;;;;15.80;99.90;;;;;;5;36014244;39016497;-84
2021/08/08 04:44:05;;;;;;;;;;;15.80;99.90;;;;;;5;36014227;39015924;-84
2021/08/08 04:47:18;;;;;;;;;;;15.80;99.90;;;;;;5;36013624;39016271;-84
2021/08/08 04:50:30;;;;;;;;;;;15.90;99.90;;;;;;5;36014107;39015873;-84
2021/08/08 04:53:40;;;;;;;;;;;15.90;99.90;;;;;;5;36014014;39016042;-83
2021/08/08 04:56:54;;;;;;;;;;;16.00;99.90;;;;;;5;36014776;39767505;-83
2021/08/08 05:00:07;;;;;;;;;;;16.00;99.90;;;;;;5;36014428;39015885;-84
2021/08/08 05:03:20;;;;;;;;;;;16.10;99.90;;;;;;5;36015523;39016057;-84
2021/08/08 05:06:30;;;;;;;;;;;16.00;99.90;;;;;;5;36014389;39015498;-85
2021/08/08 05:09:42;;;;;;;;;;;15.90;99.90;;;;;;5;36014147;39016225;-84
2021/08/08 05:12:55;;;;;;;;;;;15.90;99.90;;;;;;5;36014528;39014970;-84
2021/08/08 05:16:08;;;;;;;;;;;15.80;99.90;;;;;;5;36014987;39016212;-85
2021/08/08 05:19:17;;;;;;;;;;;15.70;99.90;;;;;;5;36015099;39015601;-85
2021/08/08 05:22:30;;;;;;;;;;;15.70;99.90;;;;;;5;36013382;39016387;-84
2021/08/08 05:25:43;;;;;;;;;;;15.70;99.90;;;;;;5;36013751;39015757;-83
2021/08/08 05:28:57;;;;;;;;;;;15.70;99.90;;;;;;5;36013809;39766314;-85
2021/08/08 05:32:06;;;;;;;;;;;15.60;99.90;;;;;;5;36015020;39016653;-86
2021/08/08 05:35:19;;;;;;;;;;;15.60;99.90;;;;;;5;36013227;39015485;-87
2021/08/08 05:38:32;;;;;;;;;;;15.50;99.90;;;;;;5;36013408;39016908;-85
2021/08/08 05:41:44;;;;;;;;;;;15.60;99.90;;;;;;5;36014094;39015646;-86
2021/08/08 05:44:54;;;;;;;;;;;15.60;99.90;;;;;;5;36014036;39015871;-85
2021/08/08 05:48:07;;;;;;;;;;;15.70;99.90;;;;;;5;36014162;39016027;-85
2021/08/08 05:51:19;;;;;;;;;;;15.80;99.90;;;;;;5;36013983;39015989;-86
2021/08/08 05:54:32;;;;;;;;;;;15.80;99.90;;;;;;5;36014554;39015589;-86
2021/08/08 05:57:42;;;;;;;;;;;15.70;99.90;;;;;;5;36013947;39015776;-85
2021/08/08 06:00:56;;;;;;;;;;;15.70;99.90;;;;;;5;36014018;39767710;-85
2021/08/08 06:04:08;;;;;;;;;;;15.70;99.90;;;;;;5;36014035;39017104;-86
2021/08/08 06:07:21;;;;;;;;;;;15.80;99.90;;;;;;5;36014320;39015922;-87
2021/08/08 06:10:31;;;;;;;;;;;15.80;99.90;;;;;;5;36014318;39016222;-87
2021/08/08 06:13:43;;;;;;;;;;;15.90;99.90;;;;;;5;36014664;39015437;-86
2021/08/08 06:16:56;;;;;;;;;;;16.00;99.90;;;;;;5;36013764;39015938;-85
2021/08/08 06:20:09;;;;;;;;;;;16.00;99.90;;;;;;5;36014899;39015808;-86
2021/08/08 06:23:18;;;;;;;;;;;16.10;99.90;;;;;;5;36015267;39016602;-86
2021/08/08 06:26:33;;;;;;;;;;;16.20;99.90;;;;;;5;36013700;39016125;-85
2021/08/08 06:29:45;;;;;;;;;;;16.30;99.90;;;;;;5;36013342;39016401;-84
2021/08/08 06:32:59;;;;;;;;;;;16.30;99.90;;;;;;5;36014804;39764668;-83
2021/08/08 06:36:09;;;;;;;;;;;16.40;99.90;;;;;;5;36013508;39016271;-84
2021/08/08 06:39:22;;;;;;;;;;;16.50;99.90;;;;;;5;36015109;39018442;-84
2021/08/08 06:42:35;;;;;;;;;;;16.70;99.90;;;;;;5;36013883;39015801;-86
2021/08/08 06:45:47;;;;;;;;;;;16.80;99.90;;;;;;5;36012944;39017346;-83
2021/08/08 06:48:57;;;;;;;;;;;16.80;99.90;;;;;;5;36015479;39019780;-85
2021/08/08 06:52:10;;;;;;;;;;;16.90;99.90;;;;;;5;36017348;39018477;-85
2021/08/08 06:55:23;;;;;;;;;;;17.10;99.90;;;;;;5;36015948;39017531;-84
2021/08/08 06:58:36;;;;;;;;;;;17.20;99.90;;;;;;5;36013191;39015901;-85
2021/08/08 07:01:45;;;;;;;;;;;17.20;99.90;;;;;;5;36013650;39016640;-83
2021/08/08 07:05:01;;;;;;;;;;;17.30;99.90;;;;;;5;36014847;39768296;-84
2021/08/08 07:08:14;;;;;;;;;;;17.30;99.90;;;;;;5;36013911;39015741;-84
2021/08/08 07:11:26;;;;;;;;;;;17.30;99.90;;;;;;5;36013720;39016128;-84
2021/08/08 07:14:36;;;;;;;;;;;17.50;99.90;;;;;;5;36015934;39017361;-85
2021/08/08 07:17:49;;;;;;;;;;;17.60;99.90;;;;;;5;36014738;39016694;-85
2021/08/08 07:21:01;;;;;;;;;;;17.60;99.90;;;;;;5;36013906;39015655;-86
2021/08/08 07:24:14;;;;;;;;;;;17.50;99.90;;;;;;5;36014833;39015489;-84
2021/08/08 07:27:24;;;;;;;;;;;17.70;99.90;;;;;;5;36013974;39016087;-84
2021/08/08 07:30:36;;;;;;;;;;;17.80;99.90;;;;;;5;36014615;39016461;-85
2021/08/08 07:33:49;;;;;;;;;;;18.10;99.90;;;;;;5;36014408;39015924;-87
2021/08/08 07:37:03;;;;;;;;;;;18.30;99.90;;;;;;5;36014613;39766007;-84
2021/08/08 07:40:13;;;;;;;;;;;18.40;99.90;;;;;;5;36014053;39015592;-84
2021/08/08 07:43:26;;;;;;;;;;;18.60;99.90;;;;;;5;36014301;39015784;-85
2021/08/08 07:46:38;;;;;;;;;;;18.50;99.90;;;;;;5;36013271;39017498;-84
2021/08/08 07:49:51;;;;;;;;;;;18.30;99.90;;;;;;5;36015146;39016012;-85
2021/08/08 07:53:01;;;;;;;;;;;18.40;99.90;;;;;;5;36014852;39016234;-85
2021/08/08 07:56:13;;;;;;;;;;;18.60;99.90;;;;;;5;36014220;39017069;-85
2021/08/08 07:59:26;;;;;;;;;;;18.90;99.90;;;;;;5;36014383;39015909;-84
2021/08/08 08:02:39;;;;;;;;;;;19.20;99.90;;;;;;5;36014800;39015523;-86
2021/08/08 08:05:48;;;;;;;;;;;19.30;99.90;;;;;;5;36013277;39017421;-87
2021/08/08 08:09:02;;;;;;;;;;;19.30;99.90;;;;;;5;36014798;39765103;-85
2021/08/08 08:12:15;;;;;;;;;;;19.30;99.90;;;;;;5;36014793;39015932;-85
2021/08/08 08:15:28;;;;;;;;;;;19.20;99.90;;;;;;5;36013110;39016229;-86
2021/08/08 08:18:37;;;;;;;;;;;19.10;99.90;;;;;;5;36014189;39016392;-86
2021/08/08 08:21:50;;;;;;;;;;;19.00;99.90;;;;;;5;36013585;39017134;-84
2021/08/08 08:25:03;;;;;;;;;;;18.90;99.80;;;;;;5;36014595;39015232;-84
2021/08/08 08:28:16;;;;;;;;;;;18.80;99.90;;;;;;5;36014216;39017641;-84
2021/08/08 08:31:26;;;;;;;;;;;18.70;99.90;;;;;;5;36014148;39015562;-85
2021/08/08 08:34:39;;;;;;;;;;;18.60;99.90;;;;;;5;36014298;39016031;-83
2021/08/08 08:37:51;;;;;;;;;;;18.50;99.90;;;;;;5;36013595;39015932;-84
2021/08/08 08:41:05;;;;;;;;;;;18.50;99.90;;;;;;5;36013718;39767930;-85
2021/08/08 08:44:15;;;;;;;;;;;18.50;99.90;;;;;;5;36014294;39015973;-86
2021/08/08 08:47:29;;;;;;;;;;;18.40;99.90;;;;;;5;36014969;39016304;-86
2021/08/08 08:50:42;;;;;;;;;;;18.30;99.90;;;;;;5;36015000;39016132;-86
2021/08/08 08:53:55;;;;;;;;;;;18.20;99.90;;;;;;5;36014482;39016556;-86
2021/08/08 08:57:06;;;;;;;;;;;18.30;99.90;;;;;;5;36013733;39016802;-84
2021/08/08 09:00:22;;;;;;;;;;;18.30;99.90;;;;;;5;36013969;39016489;-84
2021/08/08 09:03:34;;;;;;;;;;;18.40;99.90;;;;;;5;36016136;39016729;-82
2021/08/08 09:06:47;;;;;;;;;;;18.50;99.90;;;;;;5;36014599;39015172;-86
2021/08/08 09:09:57;;;;;;;;;;;18.60;97.60;;;;;;5;36013662;39018813;-84
2021/08/08 09:13:11;;;;;;;;;;;18.70;97.80;;;;;;5;36013678;39765986;-84
2021/08/08 09:16:25;;;;;;;;;;;18.90;97.30;;;;;;5;36013715;39016170;-84
2021/08/08 09:19:38;;;;;;;;;;;19.00;96.50;;;;;;5;36013691;39017005;-84
2021/08/08 09:22:55;;;;;;;;;;;19.10;96.70;;;;;;5;36014365;39017085;-85
2021/08/08 09:26:08;;;;;;;;;;;19.40;96.10;;;;;;5;36013347;39015967;-85
2021/08/08 09:29:21;;;;;;;;;;;19.70;94.90;;;;;;5;36014913;39016507;-85
2021/08/08 09:32:33;;;;;;;;;;;19.90;94.20;;;;;;5;36014825;39015214;-84
2021/08/08 09:35:44;;;;;;;;;;;20.10;92.30;;;;;;5;36014246;39015808;-84
2021/08/08 09:38:57;;;;;;;;;;;20.20;90.70;;;;;;5;36015391;39016245;-86
2021/08/08 09:42:13;;;;;;;;;;;20.30;90.10;;;;;;5;36013402;39015923;-85
2021/08/08 09:45:40;;;;;;;;;;;20.40;86.90;;;;;;5;36015943;39766421;-85
2021/08/08 09:48:50;;;;;;;;;;;20.40;88.30;;;;;;5;36015042;39016482;-85
2021/08/08 09:52:02;;;;;;;;;;;20.40;87.10;;;;;;5;36013359;39015885;-84
2021/08/08 09:55:27;;;;;;;;;;;20.30;85.70;;;;;;5;36013779;39017358;-84
2021/08/08 09:58:39;;;;;;;;;;;20.20;83.30;;;;;;5;36013925;39015695;-84
2021/08/08 10:05:40;;;;;;;;;;;20.30;82.50;;;;;;5;36013262;39017130;-84
2021/08/08 10:08:53;;;;;;;;;;;20.40;84.60;;;;;;5;36013636;39016049;-87
2021/08/08 10:12:15;;;;;;;;;;;20.60;83.00;;;;;;5;36013819;39017325;-85
2021/08/08 10:15:24;;;;;;;;;;;20.60;81.90;;;;;;5;36014232;39017717;-86
2021/08/08 10:18:40;;;;;;;;;;;20.70;81.40;;;;;;5;36013409;39765935;-85
2021/08/08 10:21:53;;;;;;;;;;;20.70;81.70;;;;;;5;36014669;39016137;-87
2021/08/08 10:25:05;;;;;;;;;;;20.50;81.70;;;;;;5;36013636;39016896;-87
2021/08/08 10:28:16;;;;;;;;;;;20.40;80.50;;;;;;5;36015678;39016912;-86
2021/08/08 10:31:30;;;;;;;;;;;20.10;80.80;;;;;;5;36012691;39015848;-86
2021/08/08 10:34:42;;;;;;;;;;;19.60;81.20;;;;;;5;36012982;39016233;-87
2021/08/08 10:38:00;;;;;;;;;;;19.20;84.60;;;;;;5;36014526;41265550;-86
2021/08/08 10:41:14;;;;;;;;;;;19.10;84.60;;;;;;5;36013287;41268643;-86
2021/08/08 10:44:31;;;;;;;;;;;19.30;84.30;;;;;;5;36014170;41267119;-87
2021/08/08 10:47:55;;;;;;;;;;;19.30;82.80;;;;;;5;36012539;41267561;-87
2021/08/08 10:51:21;;;;;;;;;;;19.10;82.00;;;;;;5;36013510;42015784;-86
2021/08/08 10:54:39;;;;;;;;;;;19.00;82.20;;;;;;5;36013228;41267407;-86
2021/08/08 10:57:57;;;;;;;;;;;19.10;82.30;;;;;;5;36014962;41268498;-87
2021/08/08 11:01:17;;;;;;;;;;;19.20;82.10;;;;;;5;36014138;41269541;-86
2021/08/08 11:04:37;;;;;;;;;;;19.20;81.50;;;;;;5;36015966;41268555;-86
2021/08/08 11:07:54;;;;;;;;;;;19.40;80.50;;;;;;5;36014876;41268688;-87
2021/08/08 11:11:11;;;;;;;;;;;19.50;81.20;;;;;;5;36017477;41266977;-88
2021/08/08 11:14:31;;;;;;;;;;;19.70;79.80;;;;;;5;36017107;41266937;-88
2021/08/08 11:21:46;;;;;;;;;;;20.00;78.70;;;;;;5;36014570;41266567;-88
2021/08/08 11:25:14;;;;;;;;;;;20.00;79.70;;;;;;5;36016235;42018523;-88
2021/08/08 11:28:33;;;;;;;;;;;20.10;80.00;;;;;;5;36014518;41267779;-89
2021/08/08 11:31:57;;;;;;;;;;;20.20;77.70;;;;;;5;36013650;41266302;-88
2021/08/08 11:35:13;;;;;;;;;;;20.30;77.80;;;;;;5;36014509;41265865;-88
2021/08/08 11:38:30;;;;;;;;;;;20.60;79.60;;;;;;5;36013343;41266507;-88
2021/08/08 11:41:49;;;;;;;;;;;20.40;81.70;;;;;;5;36013842;41267291;-88
2021/08/08 11:45:09;;;;;;;;;;;20.30;83.90;;;;;;5;36014392;41266817;-88
2021/08/08 11:48:27;;;;;;;;;;;20.30;83.80;;;;;;5;36013490;41267364;-87
2021/08/08 11:52:00;;;;;;;;;;;20.30;84.20;;;;;;5;36014017;41265666;-87
2021/08/08 11:55:19;;;;;;;;;;;20.20;83.60;;;;;;5;36015716;41268124;-86
2021/08/08 11:58:47;;;;;;;;;;;20.10;83.30;;;;;;5;36014146;42016161;-86
2021/08/08 12:02:08;;;;;;;;;;;19.70;84.40;;;;;;5;36015777;41266102;-86
2021/08/08 12:05:26;;;;;;;;;;;19.60;86.20;;;;;;5;36015889;41266245;-85
2021/08/08 12:08:47;;;;;;;;;;;19.60;86.10;;;;;;5;36013508;41267539;-87
2021/08/08 12:12:06;;;;;;;;;;;19.30;87.80;;;;;;5;36014021;41266442;-87
2021/08/08 12:15:31;;;;;;;;;;;19.30;89.30;;;;;;5;36014102;41266181;-87
2021/08/08 12:18:56;;;;;;;;;;;19.20;89.40;;;;;;5;36013662;41266807;-86
2021/08/08 12:22:17;;;;;;;;;;;19.20;90.10;;;;;;5;36013424;41265788;-85
2021/08/08 12:25:37;;;;;;;;;;;19.20;90.70;;;;;;5;36014413;41266497;-86
2021/08/08 12:29:04;;;;;;;;;;;19.20;90.70;;;;;;5;36015728;41265954;-85
2021/08/08 12:32:23;;;;;;;;;;;19.20;89.30;;;;;;5;36016560;42017003;-89
2021/08/08 12:35:44;;;;;;;;;;;19.30;87.90;;;;;;5;36015371;41266571;-86
2021/08/08 12:39:04;;;;;;;;;;;19.30;88.70;;;;;;5;36014671;41268321;-87
2021/08/08 12:42:19;;;;;;;;;;;19.30;90.00;;;;;;5;36014365;41268315;-86
2021/08/08 12:45:37;;;;;;;;;;;19.40;90.80;;;;;;5;36014098;41268095;-86
2021/08/08 12:48:58;;;;;;;;;;;19.50;88.30;;;;;;5;36013498;41267375;-87
2021/08/08 12:52:17;;;;;;;;;;;19.30;86.80;;;;;;5;36013151;41266570;-87
2021/08/08 12:55:37;;;;;;;;;;;19.20;90.00;;;;;;5;36014931;41265668;-88
2021/08/08 12:58:55;;;;;;;;;;;19.40;87.30;;;;;;5;36013112;41268257;-85
2021/08/08 13:02:14;;;;;;;;;;;19.60;85.10;;;;;;5;36013164;41267210;-89
2021/08/08 13:05:35;;;;;;;;;;;19.60;86.10;;;;;;5;36014864;42015991;-87
2021/08/08 13:08:50;;;;;;;;;;;19.60;83.40;;;;;;5;36014066;41266234;-88
2021/08/08 13:12:07;;;;;;;;;;;19.70;84.30;;;;;;5;36013038;41267003;-87
2021/08/08 13:15:26;;;;;;;;;;;19.90;84.80;;;;;;5;36013569;41266125;-76
2021/08/08 13:18:46;;;;;;;;;;;19.90;81.60;;;;;;5;36014007;41266137;-75
2021/08/08 13:22:05;;;;;;;;;;;19.90;82.00;;;;;;5;36014858;41266581;-75
2021/08/08 13:25:22;;;;;;;;;;;19.70;84.50;;;;;;5;36013984;41266192;-75
2021/08/08 13:28:41;;;;;;;;;;;19.70;83.10;;;;;;5;36014424;41266889;-75
2021/08/08 13:32:01;;;;;;;;;;;19.70;86.10;;;;;;5;36014091;41267038;-75
2021/08/08 13:35:15;;;;;;;;;;;19.90;87.60;;;;;;5;36014188;41266079;-75
2021/08/08 13:38:33;;;;;;;;;;;20.10;86.50;;;;;;5;36013537;42016319;-75
2021/08/08 13:41:53;;;;;;;;;;;20.00;83.10;;;;;;5;36013149;41266937;-75
2021/08/08 13:45:12;;;;;;;;;;;19.80;83.40;;;;;;5;36014859;41266168;-74
2021/08/08 13:48:26;;;;;;;;;;;19.60;83.40;;;;;;5;36015315;41265687;-74
2021/08/08 13:55:41;;;;;;;;;;;19.60;86.50;;;;;;5;36013770;41264967;-75
2021/08/08 13:59:00;;;;;;;;;;;19.60;86.00;;;;;;5;36014110;41265723;-75
2021/08/08 14:02:14;;;;;;;;;;;19.30;85.20;;;;;;5;36014375;41265484;-75
2021/08/08 14:05:31;;;;;;;;;;;19.20;86.20;;;;;;5;36014842;41266247;-75
2021/08/08 14:08:51;;;;;;;;;;;19.30;87.50;;;;;;5;36014052;41266485;-75
2021/08/08 14:12:12;;;;;;;;;;;19.30;87.10;;;;;;5;36014471;42015442;-75
2021/08/08 14:15:26;;;;;;;;;;;19.20;86.20;;;;;;5;36014040;41265634;-76
2021/08/08 14:18:43;;;;;;;;;;;19.00;85.00;;;;;;5;36013801;41266272;-74
2021/08/08 14:22:03;;;;;;;;;;;18.90;87.30;;;;;;5;36012519;41266588;-74
2021/08/08 14:25:22;;;;;;;;;;;18.80;88.60;;;;;;5;36016622;41265822;-73
2021/08/08 14:28:36;;;;;;;;;;;18.80;87.90;;;;;;5;36014216;41265227;-73
2021/08/08 14:31:54;;;;;;;;;;;18.70;85.80;;;;;;5;36012929;41269351;-74
2021/08/08 14:35:13;;;;;;;;;;;18.70;89.30;;;;;;5;36014233;41266864;-75
2021/08/08 14:38:33;;;;;;;;;;;18.80;90.20;;;;;;5;36013943;41267580;-75
2021/08/08 14:41:47;;;;;;;;;;;18.80;90.00;;;;;;5;36013653;41267089;-75
2021/08/08 14:45:07;;;;;;;;;;;18.80;88.90;;;;;;5;36014483;42016995;-75
2021/08/08 14:48:26;;;;;;;;;;;18.70;87.60;;;;;;5;36013497;41267065;-76
2021/08/08 14:51:46;;;;;;;;;;;18.60;89.30;;;;;;5;36013960;41270057;-76
2021/08/08 14:55:00;;;;;;;;;;;18.50;90.10;;;;;;5;36012960;41267634;-75
2021/08/08 14:58:17;;;;;;;;;;;18.60;90.00;;;;;;5;36014243;41265761;-75
2021/08/08 15:01:36;;;;;;;;;;;18.70;90.30;;;;;;5;36015209;41267815;-75
2021/08/08 15:04:56;;;;;;;;;;;18.90;90.20;;;;;;5;36015148;41265569;-76
2021/08/08 15:08:10;;;;;;;;;;;19.00;90.40;;;;;;5;36013288;41266540;-75
2021/08/08 15:11:27;;;;;;;;;;;19.20;90.30;;;;;;5;36017803;41267131;-87
2021/08/08 15:14:47;;;;;;;;;;;19.00;88.50;;;;;;5;36013812;41267532;-87
2021/08/08 15:18:08;;;;;;;;;;;19.10;87.70;;;;;;5;36017296;42016973;-90
2021/08/08 15:21:22;;;;;;;;;;;19.10;85.80;;;;;;5;36015683;41265456;-92
2021/08/08 15:24:39;;;;;;;;;;;19.00;87.10;;;;;;5;36013824;41266725;-92
2021/08/08 15:27:59;;;;;;;;;;;18.90;87.30;;;;;;5;36014448;41266238;-85
2021/08/08 15:31:19;;;;;;;;;;;18.80;89.30;;;;;;5;36015899;41268566;-90
2021/08/08 15:34:33;;;;;;;;;;;18.70;89.50;;;;;;5;36013635;41267013;-89
2021/08/08 15:37:50;;;;;;;;;;;18.70;90.30;;;;;;5;36013589;41266208;-88
2021/08/08 15:41:10;;;;;;;;;;;18.60;89.60;;;;;;5;36013893;41265696;-87
2021/08/08 15:44:29;;;;;;;;;;;18.60;90.40;;;;;;5;36013711;41265997;-87
2021/08/08 15:47:43;;;;;;;;;;;18.50;90.20;;;;;;5;36013835;41266936;-88
2021/08/08 15:51:02;;;;;;;;;;;18.50;90.70;;;;;;5;36013328;42016836;-87
2021/08/08 15:54:21;;;;;;;;;;;18.40;90.90;;;;;;5;36013239;41267101;-88
2021/08/08 15:57:41;;;;;;;;;;;18.40;91.10;;;;;;5;36014020;41265954;-88
2021/08/08 16:00:55;;;;;;;;;;;18.30;91.40;;;;;;5;36013347;41266700;-88
2021/08/08 16:04:12;;;;;;;;;;;18.30;91.50;;;;;;5;36017747;41266451;-88
2021/08/08 16:07:31;;;;;;;;;;;18.20;91.40;;;;;;5;36014041;41266316;-87
2021/08/08 16:10:51;;;;;;;;;;;18.30;91.60;;;;;;5;36015285;41266660;-87
2021/08/08 16:14:05;;;;;;;;;;;18.20;91.40;;;;;;5;36014501;41264433;-87
2021/08/08 16:17:22;;;;;;;;;;;18.20;91.80;;;;;;5;36014547;41265877;-88
2021/08/08 16:20:42;;;;;;;;;;;18.20;92.00;;;;;;5;36014105;41265639;-88
2021/08/08 16:24:06;;;;;;;;;;;18.10;92.10;;;;;;5;36013534;42016696;-88
2021/08/08 16:27:23;;;;;;;;;;;18.10;92.20;;;;;;5;36016352;41266156;-88
2021/08/08 16:30:41;;;;;;;;;;;18.00;91.60;;;;;;5;36012940;41266448;-88
2021/08/08 16:34:00;;;;;;;;;;;18.00;91.90;;;;;;5;36013872;41266535;-88
2021/08/08 16:37:19;;;;;;;;;;;18.00;91.50;;;;;;5;36013461;41266179;-88
2021/08/08 16:40:34;;;;;;;;;;;18.00;91.20;;;;;;5;36015659;41265515;-89
2021/08/08 16:43:51;;;;;;;;;;;18.00;91.60;;;;;;5;36013108;41266073;-89
2021/08/08 16:47:10;;;;;;;;;;;17.90;90.40;;;;;;5;36014596;41266500;-89
2021/08/08 16:50:30;;;;;;;;;;;17.80;90.70;;;;;;5;36014577;41266569;-89
2021/08/08 16:53:44;;;;;;;;;;;17.80;90.30;;;;;;5;36014451;41266385;-89
2021/08/08 16:57:03;;;;;;;;;;;17.80;90.40;;;;;;5;36014694;42018435;-89
2021/08/08 17:00:22;;;;;;;;;;;17.90;90.60;;;;;;5;36012732;41266381;-89
2021/08/08 17:03:41;;;;;;;;;;;17.80;88.60;;;;;;5;36013485;41270296;-89
2021/08/08 17:06:56;;;;;;;;;;;17.90;89.00;;;;;;5;36014472;41267479;-88
2021/08/08 17:10:13;;;;;;;;;;;17.90;88.70;;;;;;5;36012949;41267172;-90
2021/08/08 17:13:32;;;;;;;;;;;18.00;90.10;;;;;;5;36014025;41266489;-88
2021/08/08 17:16:51;;;;;;;;;;;18.00;87.60;;;;;;5;36013924;41266490;-87
2021/08/08 17:20:07;;;;;;;;;;;18.10;86.10;;;;;;5;36014690;41265981;-89
2021/08/08 17:23:25;;;;;;;;;;;18.10;87.10;;;;;;5;36013281;41266626;-91
2021/08/08 17:26:44;;;;;;;;;;;18.00;87.00;;;;;;5;36012862;41265867;-92
2021/08/08 17:30:07;;;;;;;;;;;18.00;86.90;;;;;;5;36014347;42014931;-91
2021/08/08 17:33:21;;;;;;;;;;;18.00;87.10;;;;;;5;36012970;41266100;-89
2021/08/08 17:36:38;;;;;;;;;;;18.00;88.20;;;;;;5;36012332;41266633;-87
2021/08/08 17:39:57;;;;;;;;;;;18.10;89.70;;;;;;5;36012307;41265896;-89
2021/08/08 17:43:17;;;;;;;;;;;18.10;90.10;;;;;;5;36013335;41265189;-90
2021/08/08 17:46:31;;;;;;;;;;;18.10;90.60;;;;;;5;36012910;41267420;-87
2021/08/08 17:49:50;;;;;;;;;;;18.00;90.40;;;;;;5;36014128;41267607;-89
2021/08/08 17:53:09;;;;;;;;;;;18.00;90.30;;;;;;5;36015135;41266014;-89
2021/08/08 17:56:28;;;;;;;;;;;18.00;90.40;;;;;;5;36013982;41266919;-89
2021/08/08 17:59:43;;;;;;;;;;;18.00;89.70;;;;;;5;36013823;41266248;-88
2021/08/08 18:03:01;;;;;;;;;;;18.00;87.70;;;;;;5;36013621;42016678;-88
2021/08/08 18:06:21;;;;;;;;;;;17.90;86.90;;;;;;5;36014118;41265743;-88
2021/08/08 18:09:41;;;;;;;;;;;17.90;88.40;;;;;;5;36013710;41266500;-85
2021/08/08 18:12:55;;;;;;;;;;;17.90;90.00;;;;;;5;36014540;41265223;-88
2021/08/08 18:16:13;;;;;;;;;;;17.80;91.00;;;;;;5;36014296;41266989;-91
2021/08/08 18:19:32;;;;;;;;;;;17.80;92.30;;;;;;5;36013131;41267772;-88
2021/08/08 18:22:51;;;;;;;;;;;17.80;92.50;;;;;;5;36014815;41266368;-86
2021/08/08 18:26:06;;;;;;;;;;;17.70;92.80;;;;;;5;36014908;41266254;-88
2021/08/08 18:29:23;;;;;;;;;;;17.60;93.40;;;;;;5;36014639;41268547;-89
2021/08/08 18:32:42;;;;;;;;;;;17.50;94.10;;;;;;5;36015264;41265798;-89
2021/08/08 18:36:03;;;;;;;;;;;17.30;95.00;;;;;;5;36013197;42016951;-88
2021/08/08 18:39:17;;;;;;;;;;;17.30;95.00;;;;;;5;36015353;41265960;-88
2021/08/08 18:42:34;;;;;;;;;;;17.20;95.10;;;;;;5;36012809;41266235;-88
2021/08/08 18:45:54;;;;;;;;;;;17.20;95.20;;;;;;5;36013652;41267430;-89
2021/08/08 18:49:13;;;;;;;;;;;17.10;95.70;;;;;;5;36015150;41266661;-88
2021/08/08 18:52:27;;;;;;;;;;;17.10;96.10;;;;;;5;36015532;41266682;-90
2021/08/08 18:55:45;;;;;;;;;;;17.00;96.10;;;;;;5;36013766;41267456;-89
2021/08/08 18:59:04;;;;;;;;;;;17.10;96.20;;;;;;5;36013776;41267542;-89
2021/08/08 19:02:23;;;;;;;;;;;17.00;96.30;;;;;;5;36014494;41266257;-89
2021/08/08 19:05:38;;;;;;;;;;;17.00;96.70;;;;;;5;36015677;41266684;-89
2021/08/08 19:08:56;;;;;;;;;;;17.00;96.60;;;;;;5;36013264;42016901;-88
2021/08/08 19:12:16;;;;;;;;;;;16.90;96.50;;;;;;5;36014447;41266947;-88
2021/08/08 19:15:35;;;;;;;;;;;16.90;96.90;;;;;;5;36014354;41266846;-88
2021/08/08 19:18:50;;;;;;;;;;;16.90;96.90;;;;;;5;36013762;41266444;-90
2021/08/08 19:22:07;;;;;;;;;;;16.90;97.20;;;;;;5;36013488;41266405;-89
2021/08/08 19:25:27;;;;;;;;;;;16.90;97.00;;;;;;5;36013341;41266862;-89
2021/08/08 19:28:46;;;;;;;;;;;16.90;96.90;;;;;;5;36013548;41268040;-89
2021/08/08 19:32:00;;;;;;;;;;;16.90;96.80;;;;;;5;36014242;41267167;-92
2021/08/08 19:35:17;;;;;;;;;;;16.80;96.80;;;;;;5;36015068;41266158;-92
2021/08/08 19:38:37;;;;;;;;;;;16.70;96.90;;;;;;5;36013088;41267826;-92
2021/08/08 19:41:59;;;;;;;;;;;16.70;97.30;;;;;;5;36014184;42015608;-92
2021/08/08 19:45:13;;;;;;;;;;;16.70;98.10;;;;;;5;36013422;41266419;-89
2021/08/08 19:48:31;;;;;;;;;;;16.70;98.30;;;;;;5;36014393;41266150;-89
2021/08/08 19:51:50;;;;;;;;;;;16.70;98.00;;;;;;5;36013106;41266572;-88
2021/08/08 19:55:10;;;;;;;;;;;16.70;98.00;;;;;;5;36013739;41266578;-88
2021/08/08 19:58:24;;;;;;;;;;;16.70;98.20;;;;;;5;36013556;41267481;-87
2021/08/08 20:01:41;;;;;;;;;;;16.70;98.20;;;;;;5;36014346;41266112;-89
2021/08/08 20:05:00;;;;;;;;;;;16.70;98.50;;;;;;5;36013858;41267151;-88
2021/08/08 20:08:20;;;;;;;;;;;16.60;98.90;;;;;;5;36014220;41266306;-89
2021/08/08 20:11:34;;;;;;;;;;;16.70;98.80;;;;;;5;36014023;41267779;-89
2021/08/08 20:14:53;;;;;;;;;;;16.60;98.90;;;;;;5;36013665;42016834;-89
2021/08/08 20:18:14;;;;;;;;;;;16.60;99.20;;;;;;5;36014525;41266380;-89
2021/08/08 20:21:34;;;;;;;;;;;16.60;99.50;;;;;;5;36014616;41266322;-89
2021/08/08 20:24:48;;;;;;;;;;;16.60;99.90;;;;;;5;36014390;41266398;-89
2021/08/08 20:28:06;;;;;;;;;;;16.60;99.90;;;;;;5;36013496;41266670;-89
2021/08/08 20:31:25;;;;;;;;;;;16.60;99.90;;;;;;5;36014250;41266515;-89
2021/08/08 20:34:44;;;;;;;;;;;16.60;99.70;;;;;;5;36014228;41265291;-89
2021/08/08 20:37:59;;;;;;;;;;;16.50;99.30;;;;;;5;36013768;41266228;-90
2021/08/08 20:41:16;;;;;;;;;;;16.50;99.40;;;;;;5;36014439;41266857;-91
2021/08/08 20:44:35;;;;;;;;;;;16.50;99.50;;;;;;5;36014566;41265838;-90
2021/08/08 20:47:56;;;;;;;;;;;16.50;99.50;;;;;;5;36014473;42017296;-90
2021/08/08 20:51:10;;;;;;;;;;;16.50;99.70;;;;;;5;36015471;41266772;-88
2021/08/08 20:54:27;;;;;;;;;;;16.50;99.80;;;;;;5;36013663;41269570;-88
2021/08/08 20:57:47;;;;;;;;;;;16.60;99.90;;;;;;5;36013081;41265615;-88
2021/08/08 21:01:07;;;;;;;;;;;16.50;99.90;;;;;;5;36013483;41266124;-87
2021/08/08 21:04:21;;;;;;;;;;;16.50;99.90;;;;;;5;36014276;41266203;-88
2021/08/08 21:07:38;;;;;;;;;;;16.50;99.90;;;;;;5;36013348;41268088;-88
2021/08/08 21:10:57;;;;;;;;;;;16.50;99.90;;;;;;5;36012858;41267252;-89
2021/08/08 21:14:17;;;;;;;;;;;16.40;99.90;;;;;;5;36013635;41265004;-89
2021/08/08 21:17:31;;;;;;;;;;;16.40;99.90;;;;;;5;36014549;41266271;-89
2021/08/08 21:20:50;;;;;;;;;;;16.40;99.90;;;;;;5;36013846;42016717;-89
2021/08/08 21:24:10;;;;;;;;;;;16.40;99.90;;;;;;5;36013169;41267027;-89
2021/08/08 21:27:29;;;;;;;;;;;16.40;99.90;;;;;;5;36014430;41265291;-88
2021/08/08 21:30:44;;;;;;;;;;;16.40;99.90;;;;;;5;36014115;41266843;-89
2021/08/08 21:34:01;;;;;;;;;;;16.40;99.90;;;;;;5;36013336;41265878;-88
2021/08/08 21:37:20;;;;;;;;;;;16.40;99.90;;;;;;5;36015996;41265367;-89
2021/08/08 21:40:39;;;;;;;;;;;16.30;99.90;;;;;;5;36014746;41266164;-88
2021/08/08 21:43:54;;;;;;;;;;;16.30;99.90;;;;;;5;36013580;41266066;-88
2021/08/08 21:47:11;;;;;;;;;;;16.30;99.90;;;;;;5;36014081;41266780;-89
2021/08/08 21:50:30;;;;;;;;;;;16.20;99.90;;;;;;5;36012774;41266586;-89
2021/08/08 21:53:51;;;;;;;;;;;16.20;99.90;;;;;;5;36013693;42016227;-88
2021/08/08 21:57:05;;;;;;;;;;;16.20;99.90;;;;;;5;36014079;41265998;-88
